createdAt,value
2018-07-06T00:01:02.200Z,60.84
2018-07-06T00:03:48.727Z,59.42
2018-07-06T00:06:35.299Z,59.57
2018-07-06T00:09:21.935Z,60.38
2018-07-06T00:12:08.565Z,60.74
2018-07-06T00:14:55.219Z,60.68
2018-07-06T00:17:41.840Z,60.58
2018-07-06T00:20:28.500Z,61.46
2018-07-06T00:23:14.980Z,60.85
2018-07-06T00:26:01.479Z,60.88
2018-07-06T00:28:48.037Z,61.21
2018-07-06T00:31:34.716Z,61.62
2018-07-06T00:34:21.123Z,61.24
2018-07-06T00:37:07.764Z,60.53
2018-07-06T00:39:54.334Z,60.41
2018-07-06T00:42:40.883Z,60.82
2018-07-06T00:45:27.416Z,59.79
2018-07-06T00:48:13.928Z,59.97
2018-07-06T00:51:02.343Z,59.92
2018-07-06T00:53:48.955Z,60.81
2018-07-06T00:56:35.560Z,60.31
2018-07-06T00:59:22.094Z,60.10
2018-07-06T01:02:08.431Z,60.51
2018-07-06T01:04:55.143Z,60.54
2018-07-06T01:07:41.698Z,60.72
2018-07-06T01:10:28.268Z,60.87
2018-07-06T01:13:14.739Z,59.99
2018-07-06T01:16:01.180Z,59.60
2018-07-06T01:18:47.736Z,60.19
2018-07-06T01:21:34.247Z,60.66
2018-07-06T01:24:20.760Z,60.63
2018-07-06T01:27:07.363Z,60.59
2018-07-06T01:29:53.951Z,60.18
2018-07-06T01:32:40.628Z,61.83
2018-07-06T01:35:27.131Z,62.67
2018-07-06T01:38:13.647Z,63.53
2018-07-06T01:41:00.270Z,63.34
2018-07-06T01:43:46.920Z,63.46
2018-07-06T01:46:33.380Z,61.25
2018-07-06T01:49:19.923Z,61.24
2018-07-06T01:52:06.470Z,60.78
2018-07-06T01:54:52.989Z,61.20
2018-07-06T01:57:39.497Z,61.03
2018-07-06T02:00:26.138Z,60.34
2018-07-06T02:03:12.827Z,62.73
2018-07-06T02:05:59.436Z,60.44
2018-07-06T02:08:45.882Z,61.06
2018-07-06T02:11:32.558Z,60.11
2018-07-06T02:14:19.060Z,61.09
2018-07-06T02:17:05.643Z,60.63
2018-07-06T02:19:52.235Z,62.42
2018-07-06T02:22:38.856Z,60.39
2018-07-06T02:25:25.426Z,60.54
2018-07-06T02:28:11.937Z,61.40
2018-07-06T02:30:58.584Z,60.47
2018-07-06T02:33:45.215Z,59.70
2018-07-06T02:36:31.636Z,59.04
2018-07-06T02:39:18.147Z,59.71
2018-07-06T02:42:04.731Z,60.34
2018-07-06T02:44:51.307Z,60.74
2018-07-06T02:47:37.876Z,60.18
2018-07-06T02:50:24.475Z,60.60
2018-07-06T02:53:11.112Z,60.31
2018-07-06T02:55:57.644Z,60.94
2018-07-06T02:58:44.252Z,60.13
2018-07-06T03:01:30.886Z,60.53
2018-07-06T03:04:17.400Z,60.41
2018-07-06T03:07:03.863Z,60.42
2018-07-06T03:09:50.527Z,62.58
2018-07-06T03:12:36.963Z,60.51
2018-07-06T03:15:23.476Z,62.18
2018-07-06T03:18:10.295Z,59.08
2018-07-06T03:20:56.952Z,59.64
2018-07-06T03:23:43.784Z,60.13
2018-07-06T03:26:34.695Z,60.78
2018-07-06T03:29:21.266Z,60.37
2018-07-06T03:32:08.631Z,60.04
2018-07-06T03:34:55.267Z,60.82
2018-07-06T03:37:41.908Z,60.89
2018-07-06T03:40:28.515Z,61.59
2018-07-06T03:43:14.951Z,61.14
2018-07-06T03:46:01.607Z,60.58
2018-07-06T03:48:48.111Z,61.29
2018-07-06T03:51:34.651Z,62.04
2018-07-06T03:54:21.087Z,60.74
2018-07-06T03:57:10.492Z,59.80
2018-07-06T03:59:57.020Z,59.74
2018-07-06T04:02:44.237Z,59.82
2018-07-06T04:05:30.868Z,59.21
2018-07-06T04:08:17.399Z,58.16
2018-07-06T04:11:04.137Z,58.27
2018-07-06T04:13:50.760Z,58.19
2018-07-06T04:16:37.332Z,57.83
2018-07-06T04:19:23.840Z,57.92
2018-07-06T04:22:10.542Z,57.55
2018-07-06T04:24:57.016Z,58.15
2018-07-06T04:27:43.635Z,58.58
2018-07-06T04:30:30.327Z,59.26
2018-07-06T04:33:16.935Z,59.44
2018-07-06T04:36:03.432Z,58.74
2018-07-06T04:38:50.072Z,58.04
2018-07-06T04:41:36.725Z,58.34
2018-07-06T04:44:23.405Z,58.48
2018-07-06T04:47:10.037Z,57.79
2018-07-06T04:49:56.461Z,58.23
2018-07-06T04:52:42.860Z,57.15
2018-07-06T04:55:29.404Z,58.32
2018-07-06T04:58:16.204Z,57.45
2018-07-06T05:01:03.132Z,58.11
2018-07-06T05:03:49.571Z,56.57
2018-07-06T05:06:36.201Z,57.98
2018-07-06T05:09:22.768Z,59.49
2018-07-06T05:12:09.292Z,59.01
2018-07-06T05:14:55.960Z,59.12
2018-07-06T05:17:42.455Z,59.21
2018-07-06T05:20:28.954Z,58.88
2018-07-06T05:23:15.595Z,57.69
2018-07-06T05:26:02.051Z,57.97
2018-07-06T05:28:48.687Z,57.48
2018-07-06T05:31:35.248Z,55.71
2018-07-06T05:34:21.885Z,56.09
2018-07-06T05:37:08.708Z,54.65
2018-07-06T05:39:55.336Z,53.95
2018-07-06T05:42:41.923Z,53.47
2018-07-06T05:45:28.556Z,53.19
2018-07-06T05:48:15.088Z,52.67
2018-07-06T05:51:01.748Z,53.18
2018-07-06T05:53:48.494Z,52.85
2018-07-06T05:56:34.861Z,53.16
2018-07-06T05:59:21.534Z,52.68
2018-07-06T06:02:08.176Z,52.80
2018-07-06T06:04:54.759Z,53.27
2018-07-06T06:07:29.097Z,53.29
2018-07-06T06:09:58.566Z,51.96
2018-07-06T06:12:28.399Z,52.36
2018-07-06T06:14:58.327Z,53.63
2018-07-06T06:17:28.207Z,54.20
2018-07-06T06:19:58.038Z,54.94
2018-07-06T06:22:27.826Z,55.26
2018-07-06T06:24:57.755Z,55.52
2018-07-06T06:27:27.483Z,56.53
2018-07-06T06:29:57.443Z,55.66
2018-07-06T06:32:27.377Z,56.57
2018-07-06T06:34:57.311Z,56.01
2018-07-06T06:37:27.175Z,56.01
2018-07-06T06:39:57.087Z,55.69
2018-07-06T06:42:26.986Z,55.62
2018-07-06T06:44:56.875Z,56.29
2018-07-06T06:47:26.752Z,56.75
2018-07-06T06:49:56.808Z,58.20
2018-07-06T06:52:26.751Z,58.46
2018-07-06T06:54:56.679Z,58.22
2018-07-06T06:57:26.557Z,57.31
2018-07-06T06:59:56.503Z,56.34
2018-07-06T07:02:26.383Z,57.27
2018-07-06T07:04:56.451Z,56.58
2018-07-06T07:07:26.745Z,56.92
2018-07-06T07:09:56.750Z,57.70
2018-07-06T07:12:26.643Z,56.95
2018-07-06T07:14:56.563Z,58.15
2018-07-06T07:17:26.451Z,58.77
2018-07-06T07:19:56.329Z,56.96
2018-07-06T07:22:26.332Z,56.39
2018-07-06T07:24:56.255Z,56.81
2018-07-06T07:27:26.267Z,56.57
2018-07-06T07:29:56.219Z,54.96
2018-07-06T07:32:26.044Z,54.78
2018-07-06T07:34:55.903Z,54.27
2018-07-06T07:37:25.829Z,55.42
2018-07-06T07:39:55.801Z,55.29
2018-07-06T07:42:25.836Z,54.14
2018-07-06T07:44:56.800Z,55.17
2018-07-06T07:47:26.943Z,55.55
2018-07-06T07:49:56.812Z,56.09
2018-07-06T07:52:37.540Z,55.22
2018-07-06T07:55:07.434Z,55.89
2018-07-06T07:57:37.265Z,55.48
2018-07-06T08:00:07.081Z,53.79
2018-07-06T08:02:37.074Z,54.60
2018-07-06T08:05:06.967Z,54.00
2018-07-06T08:07:36.974Z,53.94
2018-07-06T08:10:06.860Z,53.83
2018-07-06T08:12:36.783Z,52.33
2018-07-06T08:15:06.787Z,51.24
2018-07-06T08:17:36.620Z,51.91
2018-07-06T08:20:06.580Z,51.20
2018-07-06T08:22:36.351Z,51.24
2018-07-06T08:25:06.163Z,51.17
2018-07-06T08:27:36.041Z,50.68
2018-07-06T08:30:05.987Z,52.11
2018-07-06T08:32:35.839Z,50.30
2018-07-06T08:35:16.472Z,49.56
2018-07-06T08:37:57.711Z,50.87
2018-07-06T08:40:28.065Z,49.24
2018-07-06T08:42:58.942Z,49.78
2018-07-06T08:45:29.404Z,50.07
2018-07-06T08:47:59.402Z,50.19
2018-07-06T08:50:29.359Z,49.70
2018-07-06T08:52:59.389Z,49.25
2018-07-06T08:55:29.534Z,48.42
2018-07-06T08:57:59.695Z,49.57
2018-07-06T09:00:29.564Z,49.33
2018-07-06T09:02:59.457Z,49.41
2018-07-06T09:05:29.348Z,50.06
2018-07-06T09:07:59.197Z,49.27
2018-07-06T09:10:29.016Z,49.62
2018-07-06T09:12:58.826Z,49.60
2018-07-06T09:15:28.716Z,50.64
2018-07-06T09:17:58.506Z,49.70
2018-07-06T09:20:28.336Z,49.38
2018-07-06T09:22:58.985Z,50.02
2018-07-06T09:25:28.865Z,48.67
2018-07-06T09:27:58.671Z,49.16
2018-07-06T09:30:28.433Z,49.44
2018-07-06T09:32:58.292Z,48.76
2018-07-06T09:35:28.211Z,48.74
2018-07-06T09:37:58.067Z,49.56
2018-07-06T09:40:27.908Z,48.57
2018-07-06T09:42:57.719Z,48.47
2018-07-06T09:45:27.608Z,47.72
2018-07-06T09:47:57.472Z,48.61
2018-07-06T09:50:27.274Z,49.74
2018-07-06T09:52:57.248Z,48.78
2018-07-06T09:55:27.067Z,48.92
2018-07-06T09:57:56.899Z,47.64
2018-07-06T10:00:31.655Z,48.46
2018-07-06T10:03:01.477Z,49.55
2018-07-06T10:05:31.386Z,48.35
2018-07-06T10:08:01.136Z,49.33
2018-07-06T10:10:31.035Z,49.48
2018-07-06T10:13:00.912Z,47.79
2018-07-06T10:15:30.788Z,49.28
2018-07-06T10:18:00.597Z,49.89
2018-07-06T10:20:30.512Z,50.11
2018-07-06T10:23:00.299Z,50.52
2018-07-06T10:25:30.147Z,49.98
2018-07-06T10:30:11.887Z,48.50
2018-07-06T10:32:41.811Z,47.93
2018-07-06T10:35:11.576Z,49.23
2018-07-06T10:37:41.471Z,49.70
2018-07-06T10:40:11.372Z,48.89
2018-07-06T10:42:41.171Z,48.88
2018-07-06T10:45:11.052Z,49.69
2018-07-06T10:47:40.915Z,48.14
2018-07-06T10:50:10.744Z,48.66
2018-07-06T10:52:40.520Z,47.70
2018-07-06T10:55:10.405Z,47.65
2018-07-06T10:57:40.336Z,47.80
2018-07-06T11:00:10.265Z,47.94
2018-07-06T11:02:40.155Z,47.81
2018-07-06T11:05:09.959Z,47.44
2018-07-06T11:07:39.808Z,48.28
2018-07-06T11:10:09.680Z,46.84
2018-07-06T11:12:39.455Z,46.75
2018-07-06T11:15:09.387Z,48.01
2018-07-06T11:17:39.235Z,47.25
2018-07-06T11:20:09.067Z,46.11
2018-07-06T11:22:38.875Z,45.96
2018-07-06T11:25:08.817Z,46.43
2018-07-06T11:27:38.673Z,45.95
2018-07-06T11:30:08.665Z,45.84
2018-07-06T11:32:38.638Z,46.25
2018-07-06T11:35:08.943Z,45.71
2018-07-06T11:37:38.770Z,45.67
2018-07-06T11:40:08.680Z,44.90
2018-07-06T11:42:38.507Z,45.39
2018-07-06T11:45:08.525Z,45.36
2018-07-06T11:47:38.407Z,45.94
2018-07-06T11:50:08.270Z,46.37
2018-07-06T11:52:38.081Z,46.47
2018-07-06T11:55:08.121Z,45.41
2018-07-06T11:57:37.932Z,45.02
2018-07-06T12:00:07.832Z,45.05
2018-07-06T12:02:37.754Z,46.16
2018-07-06T12:05:07.789Z,46.72
2018-07-06T12:07:37.703Z,46.79
2018-07-06T12:10:07.543Z,44.78
2018-07-06T12:12:37.350Z,44.84
2018-07-06T12:15:07.416Z,42.39
2018-07-06T12:17:37.220Z,44.29
2018-07-06T12:20:07.227Z,45.32
2018-07-06T12:22:37.039Z,43.88
2018-07-06T12:25:07.055Z,43.64
2018-07-06T12:27:36.830Z,45.07
2018-07-06T12:30:06.699Z,43.39
2018-07-06T12:32:36.571Z,43.78
2018-07-06T12:35:06.422Z,43.87
2018-07-06T12:37:36.206Z,43.71
2018-07-06T12:40:06.086Z,43.96
2018-07-06T12:42:35.914Z,43.92
2018-07-06T12:45:05.962Z,43.51
2018-07-06T12:47:36.033Z,43.73
2018-07-06T12:50:06.291Z,42.88
2018-07-06T12:52:36.596Z,43.12
2018-07-06T12:55:06.503Z,43.21
2018-07-06T12:57:36.283Z,42.85
2018-07-06T13:00:06.280Z,43.42
2018-07-06T13:02:36.589Z,44.93
2018-07-06T13:05:06.519Z,44.56
2018-07-06T13:07:36.596Z,43.44
2018-07-06T13:10:06.792Z,43.25
2018-07-06T13:12:36.571Z,43.40
2018-07-06T13:15:06.543Z,42.74
2018-07-06T13:17:36.382Z,43.58
2018-07-06T13:20:06.231Z,43.50
2018-07-06T13:22:36.071Z,44.70
2018-07-06T13:25:06.004Z,45.01
2018-07-06T13:27:35.960Z,43.60
2018-07-06T13:30:05.923Z,43.96
2018-07-06T13:32:35.748Z,43.49
2018-07-06T13:35:05.582Z,44.08
2018-07-06T13:37:35.384Z,43.76
2018-07-06T13:40:05.243Z,44.78
2018-07-06T13:42:35.048Z,43.72
2018-07-06T13:45:05.006Z,45.39
2018-07-06T13:47:34.813Z,44.78
2018-07-06T13:50:04.724Z,45.23
2018-07-06T13:52:34.711Z,47.17
2018-07-06T13:55:04.632Z,48.10
2018-07-06T13:57:34.520Z,47.68
2018-07-06T14:00:04.455Z,47.57
2018-07-06T14:02:34.357Z,46.78
2018-07-06T14:05:04.151Z,47.04
2018-07-06T14:07:34.001Z,47.79
2018-07-06T14:10:03.855Z,48.59
2018-07-06T14:12:33.637Z,49.85
2018-07-06T14:15:03.492Z,49.66
2018-07-06T14:17:33.243Z,49.89
2018-07-06T14:20:03.150Z,50.20
2018-07-06T14:22:32.909Z,50.79
2018-07-06T14:25:02.673Z,51.36
2018-07-06T14:27:32.610Z,51.29
2018-07-06T14:30:02.463Z,51.50
2018-07-06T14:32:32.327Z,51.78
2018-07-06T14:35:02.109Z,53.13
2018-07-06T14:37:32.048Z,52.93
2018-07-06T14:40:01.835Z,53.35
2018-07-06T14:42:31.875Z,52.79
2018-07-06T14:45:01.690Z,52.82
2018-07-06T14:47:31.548Z,51.53
2018-07-06T14:50:01.489Z,52.68
2018-07-06T14:52:31.401Z,52.06
2018-07-06T14:55:01.188Z,52.09
2018-07-06T14:57:31.107Z,48.28
2018-07-06T15:00:01.095Z,47.90
2018-07-06T15:02:30.998Z,46.55
2018-07-06T15:05:00.856Z,47.31
2018-07-06T15:07:30.772Z,48.31
2018-07-06T15:10:00.624Z,48.37
2018-07-06T15:12:30.507Z,47.61
2018-07-06T15:15:00.215Z,47.50
2018-07-06T15:17:30.017Z,47.75
2018-07-06T15:19:59.854Z,48.15
2018-07-06T15:22:29.643Z,47.43
2018-07-06T15:24:59.550Z,46.98
2018-07-06T15:27:29.392Z,48.07
2018-07-06T15:29:59.252Z,49.27
2018-07-06T15:32:29.037Z,49.15
2018-07-06T15:34:58.868Z,48.86
2018-07-06T15:37:28.631Z,48.48
2018-07-06T15:39:58.424Z,49.59
2018-07-06T15:42:28.264Z,48.90
2018-07-06T15:44:58.055Z,49.29
2018-07-06T15:47:27.878Z,49.15
2018-07-06T15:49:57.743Z,49.50
2018-07-06T15:52:27.567Z,49.17
2018-07-06T15:54:57.375Z,48.94
2018-07-06T15:57:27.219Z,49.94
2018-07-06T15:59:57.191Z,50.14
2018-07-06T16:02:26.963Z,49.30
2018-07-06T16:04:56.852Z,49.54
2018-07-06T16:07:26.755Z,49.18
2018-07-06T16:09:56.500Z,49.35
2018-07-06T16:12:26.316Z,49.73
2018-07-06T16:14:56.183Z,49.75
2018-07-06T16:17:26.056Z,49.97
2018-07-06T16:19:55.966Z,50.56
2018-07-06T16:22:25.930Z,49.67
2018-07-06T16:24:55.723Z,49.28
2018-07-06T16:27:25.556Z,48.85
2018-07-06T16:29:55.411Z,50.79
2018-07-06T16:32:25.223Z,49.49
2018-07-06T16:34:55.098Z,49.30
2018-07-06T16:37:24.939Z,49.35
2018-07-06T16:39:54.812Z,49.84
2018-07-06T16:42:24.549Z,49.72
2018-07-06T16:44:54.459Z,50.99
2018-07-06T16:47:24.337Z,51.92
2018-07-06T16:49:54.294Z,52.78
2018-07-06T16:52:24.446Z,53.44
2018-07-06T16:54:54.259Z,54.20
2018-07-06T16:57:24.196Z,53.06
2018-07-06T16:59:54.076Z,54.00
2018-07-06T17:02:23.983Z,54.10
2018-07-06T17:04:53.885Z,53.65
2018-07-06T17:07:23.797Z,54.08
2018-07-06T17:09:53.627Z,53.95
2018-07-06T17:12:23.392Z,54.43
2018-07-06T17:14:53.251Z,53.64
2018-07-06T17:17:23.061Z,53.94
2018-07-06T17:19:52.823Z,54.43
2018-07-06T17:22:22.696Z,55.43
2018-07-06T17:24:52.524Z,55.81
2018-07-06T17:27:22.436Z,54.73
2018-07-06T17:29:52.167Z,55.09
2018-07-06T17:32:22.052Z,54.28
2018-07-06T17:34:51.835Z,53.78
2018-07-06T17:37:21.715Z,55.86
2018-07-06T17:39:51.571Z,55.50
2018-07-06T17:42:21.393Z,54.85
2018-07-06T17:44:51.227Z,55.95
2018-07-06T17:47:21.013Z,55.78
2018-07-06T17:49:50.891Z,56.06
2018-07-06T17:52:20.699Z,56.37
2018-07-06T17:54:50.992Z,55.86
2018-07-06T17:57:20.980Z,56.74
2018-07-06T17:59:50.799Z,56.02
2018-07-06T18:02:20.909Z,56.81
2018-07-06T18:04:50.858Z,54.80
2018-07-06T18:07:20.879Z,55.36
2018-07-06T18:09:50.687Z,55.24
2018-07-06T18:12:20.586Z,57.74
2018-07-06T18:14:50.474Z,56.58
2018-07-06T18:17:21.184Z,55.11
2018-07-06T18:19:51.353Z,56.35
2018-07-06T18:22:22.132Z,55.90
2018-07-06T18:24:52.115Z,56.57
2018-07-06T18:27:23.165Z,56.51
2018-07-06T18:29:53.099Z,56.46
2018-07-06T18:32:23.145Z,56.81
2018-07-06T18:34:53.179Z,56.61
2018-07-06T18:37:23.280Z,57.33
2018-07-06T18:39:53.227Z,56.92
2018-07-06T18:42:23.167Z,56.28
2018-07-06T18:44:53.559Z,56.31
2018-07-06T18:47:23.783Z,57.04
2018-07-06T18:49:53.583Z,57.63
2018-07-06T18:52:23.487Z,57.19
2018-07-06T18:54:53.753Z,58.14
2018-07-06T18:57:23.603Z,57.24
2018-07-06T18:59:53.591Z,56.65
2018-07-06T19:02:24.088Z,57.27
2018-07-06T19:04:54.012Z,57.94
2018-07-06T19:07:23.872Z,57.59
2018-07-06T19:09:53.996Z,58.06
2018-07-06T19:12:23.835Z,57.48
2018-07-06T19:14:54.167Z,57.30
2018-07-06T19:17:24.182Z,58.30
2018-07-06T19:19:54.154Z,58.42
2018-07-06T19:22:24.016Z,57.90
2018-07-06T19:24:53.857Z,58.83
2018-07-06T19:27:23.839Z,58.55
2018-07-06T19:29:53.619Z,58.63
2018-07-06T19:32:23.512Z,58.68
2018-07-06T19:34:53.311Z,59.49
2018-07-06T19:37:23.103Z,59.06
2018-07-06T19:39:52.984Z,59.88
2018-07-06T19:42:22.779Z,60.69
2018-07-06T19:44:52.643Z,60.18
2018-07-06T19:47:22.505Z,60.93
2018-07-06T19:49:52.363Z,60.94
2018-07-06T19:52:22.476Z,61.08
2018-07-06T19:54:52.395Z,60.62
2018-07-06T19:57:22.486Z,61.04
2018-07-06T19:59:52.332Z,61.23
2018-07-06T20:02:22.124Z,60.69
2018-07-06T20:04:51.990Z,61.36
2018-07-06T20:07:21.848Z,61.62
2018-07-06T20:09:51.648Z,62.00
2018-07-06T20:12:21.475Z,62.14
2018-07-06T20:14:51.427Z,61.75
2018-07-06T20:17:21.263Z,61.14
2018-07-06T20:19:51.080Z,61.78
2018-07-06T20:22:21.296Z,61.66
2018-07-06T20:24:51.111Z,61.65
2018-07-06T20:27:21.072Z,61.07
2018-07-06T20:29:50.904Z,61.34
2018-07-06T20:32:20.746Z,62.39
2018-07-06T20:34:50.697Z,64.10
2018-07-06T20:37:20.646Z,64.54
2018-07-06T20:39:50.532Z,63.43
2018-07-06T20:42:20.328Z,62.72
2018-07-06T20:44:50.484Z,65.46
2018-07-06T20:47:20.311Z,63.63
2018-07-06T20:49:50.141Z,65.99
2018-07-06T20:52:20.124Z,67.72
2018-07-06T20:54:49.988Z,67.33
2018-07-06T20:57:19.884Z,67.55
2018-07-06T20:59:49.754Z,65.84
2018-07-06T21:02:19.658Z,68.56
2018-07-06T21:04:49.434Z,67.34
2018-07-06T21:07:19.351Z,70.72
2018-07-06T21:09:49.149Z,67.57
2018-07-06T21:12:19.042Z,67.78
2018-07-06T21:14:48.952Z,67.77
2018-07-06T21:17:18.797Z,65.77
2018-07-06T21:19:48.618Z,63.74
2018-07-06T21:22:18.475Z,63.84
2018-07-06T21:24:48.417Z,65.46
2018-07-06T21:27:18.212Z,63.94
2018-07-06T21:29:47.983Z,63.69
2018-07-06T21:32:17.777Z,63.69
2018-07-06T21:34:47.616Z,63.62
2018-07-06T21:37:17.445Z,65.59
2018-07-06T21:39:47.223Z,64.52
2018-07-06T21:42:17.156Z,63.10
2018-07-06T21:44:47.175Z,64.78
2018-07-06T21:47:17.100Z,66.41
2018-07-06T21:49:46.936Z,65.10
2018-07-06T21:52:16.778Z,64.86
2018-07-06T21:54:46.671Z,65.39
2018-07-06T21:57:16.521Z,63.31
2018-07-06T21:59:46.391Z,63.34
2018-07-06T22:02:17.004Z,63.39
2018-07-06T22:04:47.804Z,62.22
2018-07-06T22:07:17.717Z,62.06
2018-07-06T22:09:47.644Z,63.37
2018-07-06T22:12:17.448Z,64.27
2018-07-06T22:14:47.234Z,64.40
2018-07-06T22:17:17.088Z,65.29
2018-07-06T22:19:46.827Z,65.27
2018-07-06T22:22:16.578Z,65.40
2018-07-06T22:24:46.375Z,65.98
2018-07-06T22:27:16.235Z,65.23
2018-07-06T22:29:46.065Z,65.42
2018-07-06T22:32:15.913Z,65.63
2018-07-06T22:34:45.680Z,65.55
2018-07-06T22:37:15.508Z,65.20
2018-07-06T22:39:45.346Z,64.26
2018-07-06T22:42:15.115Z,64.48
2018-07-06T22:44:44.990Z,64.96
2018-07-06T22:47:15.080Z,64.87
2018-07-06T22:49:44.877Z,64.17
2018-07-06T22:52:14.693Z,64.79
2018-07-06T22:54:44.464Z,64.99
2018-07-06T22:57:14.323Z,64.59
2018-07-06T22:59:44.091Z,63.92
2018-07-06T23:02:13.982Z,65.22
2018-07-06T23:04:43.754Z,65.07
2018-07-06T23:07:13.673Z,65.76
2018-07-06T23:09:43.439Z,65.56
2018-07-06T23:12:13.292Z,66.37
2018-07-06T23:14:43.132Z,66.75
2018-07-06T23:17:12.983Z,66.84
2018-07-06T23:19:42.825Z,67.37
2018-07-06T23:22:12.863Z,68.16
2018-07-06T23:24:42.737Z,67.18
2018-07-06T23:27:12.565Z,67.59
2018-07-06T23:29:42.289Z,68.08
2018-07-06T23:32:12.142Z,67.72
2018-07-06T23:34:41.988Z,67.99
2018-07-06T23:37:11.830Z,68.21
2018-07-06T23:39:41.595Z,68.78
2018-07-06T23:42:11.471Z,68.63
2018-07-06T23:44:41.343Z,68.66
2018-07-06T23:47:11.227Z,68.80
2018-07-06T23:49:41.023Z,68.96
2018-07-06T23:52:10.848Z,68.41
2018-07-06T23:54:40.864Z,69.30
2018-07-06T23:57:10.731Z,68.91
2018-07-06T23:59:40.495Z,69.91
